sensor_id;sensor_type;location;lat;lon;timestamp;temperature;humidity
71084;DHT22;58741;52.672;13.548;2023-04-07T00:00:22;0.80;73.70
71084;DHT22;58741;52.672;13.548;2023-04-07T00:02:47;0.80;74.70
71084;DHT22;58741;52.672;13.548;2023-04-07T00:05:13;0.80;74.70
71084;DHT22;58741;52.672;13.548;2023-04-07T00:07:39;0.80;74.70
71084;DHT22;58741;52.672;13.548;2023-04-07T00:10:06;0.80;74.90
71084;DHT22;58741;52.672;13.548;2023-04-07T00:12:32;0.70;74.80
71084;DHT22;58741;52.672;13.548;2023-04-07T00:14:58;0.70;75.20
71084;DHT22;58741;52.672;13.548;2023-04-07T00:17:24;0.70;75.10
71084;DHT22;58741;52.672;13.548;2023-04-07T00:19:49;0.70;75.50
71084;DHT22;58741;52.672;13.548;2023-04-07T00:22:15;0.60;75.90
71084;DHT22;58741;52.672;13.548;2023-04-07T00:24:40;0.60;75.70
71084;DHT22;58741;52.672;13.548;2023-04-07T00:31:29;0.50;75.30
71084;DHT22;58741;52.672;13.548;2023-04-07T00:36:06;0.50;75.60
71084;DHT22;58741;52.672;13.548;2023-04-07T00:40:43;0.40;75.20
71084;DHT22;58741;52.672;13.548;2023-04-07T00:43:09;0.40;75.80
71084;DHT22;58741;52.672;13.548;2023-04-07T00:45:35;0.30;76.30
71084;DHT22;58741;52.672;13.548;2023-04-07T00:50:12;0.30;76.50
71084;DHT22;58741;52.672;13.548;2023-04-07T00:52:38;0.30;77.30
71084;DHT22;58741;52.672;13.548;2023-04-07T00:55:05;0.20;76.70
71084;DHT22;58741;52.672;13.548;2023-04-07T00:57:30;0.20;77.20
71084;DHT22;58741;52.672;13.548;2023-04-07T00:59:56;0.20;77.20
71084;DHT22;58741;52.672;13.548;2023-04-07T01:02:40;0.10;77.40
71084;DHT22;58741;52.672;13.548;2023-04-07T01:07:31;0.10;77.40
71084;DHT22;58741;52.672;13.548;2023-04-07T01:10:05;0.10;78.20
71084;DHT22;58741;52.672;13.548;2023-04-07T01:13:04;0.00;77.60
71084;DHT22;58741;52.672;13.548;2023-04-07T01:15:30;0.00;77.70
71084;DHT22;58741;52.672;13.548;2023-04-07T01:18:18;0.00;77.60
71084;DHT22;58741;52.672;13.548;2023-04-07T01:20:46;0.00;77.70
71084;DHT22;58741;52.672;13.548;2023-04-07T01:23:24;0.00;77.90
71084;DHT22;58741;52.672;13.548;2023-04-07T01:26:19;-0.10;77.60
71084;DHT22;58741;52.672;13.548;2023-04-07T01:29:19;-0.10;78.00
71084;DHT22;58741;52.672;13.548;2023-04-07T01:31:48;-0.10;77.60
71084;DHT22;58741;52.672;13.548;2023-04-07T01:36:26;-0.10;77.10
71084;DHT22;58741;52.672;13.548;2023-04-07T01:38:53;-0.20;77.80
71084;DHT22;58741;52.672;13.548;2023-04-07T01:41:21;-0.20;77.70
71084;DHT22;58741;52.672;13.548;2023-04-07T01:43:48;-0.20;78.20
71084;DHT22;58741;52.672;13.548;2023-04-07T01:46:14;-0.20;78.30
71084;DHT22;58741;52.672;13.548;2023-04-07T01:48:41;-0.20;78.00
71084;DHT22;58741;52.672;13.548;2023-04-07T01:51:07;-0.20;77.80
71084;DHT22;58741;52.672;13.548;2023-04-07T01:53:34;-0.30;78.00
71084;DHT22;58741;52.672;13.548;2023-04-07T01:56:02;-0.30;78.00
71084;DHT22;58741;52.672;13.548;2023-04-07T02:00:40;-0.30;77.50
71084;DHT22;58741;52.672;13.548;2023-04-07T02:03:14;-0.30;78.00
71084;DHT22;58741;52.672;13.548;2023-04-07T02:10:11;-0.30;77.90
71084;DHT22;58741;52.672;13.548;2023-04-07T02:12:38;-0.30;78.80
71084;DHT22;58741;52.672;13.548;2023-04-07T02:17:23;-0.30;78.50
71084;DHT22;58741;52.672;13.548;2023-04-07T02:22:04;-0.40;78.50
71084;DHT22;58741;52.672;13.548;2023-04-07T02:24:30;-0.40;79.40
71084;DHT22;58741;52.672;13.548;2023-04-07T02:26:56;-0.40;79.40
71084;DHT22;58741;52.672;13.548;2023-04-07T02:31:34;-0.40;79.00
71084;DHT22;58741;52.672;13.548;2023-04-07T02:40:34;-0.40;79.90
71084;DHT22;58741;52.672;13.548;2023-04-07T02:43:01;-0.40;81.00
71084;DHT22;58741;52.672;13.548;2023-04-07T02:45:26;-0.40;81.30
71084;DHT22;58741;52.672;13.548;2023-04-07T02:47:52;-0.30;80.80
71084;DHT22;58741;52.672;13.548;2023-04-07T02:50:18;-0.30;81.10
71084;DHT22;58741;52.672;13.548;2023-04-07T02:52:44;-0.30;81.50
71084;DHT22;58741;52.672;13.548;2023-04-07T02:55:12;-0.30;81.50
71084;DHT22;58741;52.672;13.548;2023-04-07T02:57:38;-0.30;81.40
71084;DHT22;58741;52.672;13.548;2023-04-07T03:00:08;-0.30;81.60
71084;DHT22;58741;52.672;13.548;2023-04-07T03:02:49;-0.20;81.30
71084;DHT22;58741;52.672;13.548;2023-04-07T03:05:16;-0.20;82.30
71084;DHT22;58741;52.672;13.548;2023-04-07T03:07:42;-0.20;82.00
71084;DHT22;58741;52.672;13.548;2023-04-07T03:10:09;-0.20;81.90
71084;DHT22;58741;52.672;13.548;2023-04-07T03:12:35;-0.20;82.20
71084;DHT22;58741;52.672;13.548;2023-04-07T03:15:01;-0.20;82.70
71084;DHT22;58741;52.672;13.548;2023-04-07T03:17:27;-0.20;82.90
71084;DHT22;58741;52.672;13.548;2023-04-07T03:19:53;-0.10;83.30
71084;DHT22;58741;52.672;13.548;2023-04-07T03:22:19;-0.10;82.70
71084;DHT22;58741;52.672;13.548;2023-04-07T03:26:59;-0.10;83.60
71084;DHT22;58741;52.672;13.548;2023-04-07T03:29:37;0.00;83.80
71084;DHT22;58741;52.672;13.548;2023-04-07T03:32:05;0.00;84.50
71084;DHT22;58741;52.672;13.548;2023-04-07T03:34:31;0.10;83.70
71084;DHT22;58741;52.672;13.548;2023-04-07T03:36:57;0.10;83.90
71084;DHT22;58741;52.672;13.548;2023-04-07T03:39:23;0.10;83.70
71084;DHT22;58741;52.672;13.548;2023-04-07T03:41:53;0.10;83.70
71084;DHT22;58741;52.672;13.548;2023-04-07T03:44:19;0.10;83.20
71084;DHT22;58741;52.672;13.548;2023-04-07T03:46:45;0.10;83.60
71084;DHT22;58741;52.672;13.548;2023-04-07T03:49:13;0.10;82.90
71084;DHT22;58741;52.672;13.548;2023-04-07T03:51:39;0.10;82.70
71084;DHT22;58741;52.672;13.548;2023-04-07T03:54:11;0.10;82.70
71084;DHT22;58741;52.672;13.548;2023-04-07T03:56:40;0.10;82.30
71084;DHT22;58741;52.672;13.548;2023-04-07T03:59:06;0.10;82.10
71084;DHT22;58741;52.672;13.548;2023-04-07T04:01:35;0.10;82.50
71084;DHT22;58741;52.672;13.548;2023-04-07T04:06:20;0.10;82.40
71084;DHT22;58741;52.672;13.548;2023-04-07T04:08:46;0.10;82.40
71084;DHT22;58741;52.672;13.548;2023-04-07T04:11:12;0.10;83.00
71084;DHT22;58741;52.672;13.548;2023-04-07T04:13:45;0.10;83.20
71084;DHT22;58741;52.672;13.548;2023-04-07T04:16:11;0.20;84.60
71084;DHT22;58741;52.672;13.548;2023-04-07T04:18:38;0.20;84.40
71084;DHT22;58741;52.672;13.548;2023-04-07T04:23:16;0.20;84.70
71084;DHT22;58741;52.672;13.548;2023-04-07T04:25:43;0.30;85.40
71084;DHT22;58741;52.672;13.548;2023-04-07T04:28:10;0.30;85.40
71084;DHT22;58741;52.672;13.548;2023-04-07T04:30:36;0.30;86.10
71084;DHT22;58741;52.672;13.548;2023-04-07T04:33:02;0.40;87.10
71084;DHT22;58741;52.672;13.548;2023-04-07T04:35:36;0.40;87.30
71084;DHT22;58741;52.672;13.548;2023-04-07T04:38:08;0.50;86.00
71084;DHT22;58741;52.672;13.548;2023-04-07T04:40:35;0.50;86.80
71084;DHT22;58741;52.672;13.548;2023-04-07T04:43:02;0.50;86.60
71084;DHT22;58741;52.672;13.548;2023-04-07T04:45:33;0.60;86.40
71084;DHT22;58741;52.672;13.548;2023-04-07T04:47:59;0.60;87.00
71084;DHT22;58741;52.672;13.548;2023-04-07T04:52:36;0.60;86.00
71084;DHT22;58741;52.672;13.548;2023-04-07T04:55:06;0.70;86.70
71084;DHT22;58741;52.672;13.548;2023-04-07T04:57:31;0.70;86.80
71084;DHT22;58741;52.672;13.548;2023-04-07T04:59:59;0.80;87.50
71084;DHT22;58741;52.672;13.548;2023-04-07T05:02:25;0.80;87.70
71084;DHT22;58741;52.672;13.548;2023-04-07T05:07:03;0.90;86.40
71084;DHT22;58741;52.672;13.548;2023-04-07T05:09:30;1.00;87.80
71084;DHT22;58741;52.672;13.548;2023-04-07T05:14:07;1.10;87.90
71084;DHT22;58741;52.672;13.548;2023-04-07T05:16:35;1.10;88.10
71084;DHT22;58741;52.672;13.548;2023-04-07T05:19:02;1.20;88.10
71084;DHT22;58741;52.672;13.548;2023-04-07T05:23:40;1.30;87.10
71084;DHT22;58741;52.672;13.548;2023-04-07T05:26:07;1.40;87.80
71084;DHT22;58741;52.672;13.548;2023-04-07T05:28:34;1.50;88.00
71084;DHT22;58741;52.672;13.548;2023-04-07T05:31:04;1.60;87.90
71084;DHT22;58741;52.672;13.548;2023-04-07T05:33:31;1.60;88.00
71084;DHT22;58741;52.672;13.548;2023-04-07T05:35:58;1.70;87.70
71084;DHT22;58741;52.672;13.548;2023-04-07T05:38:24;1.80;88.10
71084;DHT22;58741;52.672;13.548;2023-04-07T05:40:53;1.90;88.60
71084;DHT22;58741;52.672;13.548;2023-04-07T05:43:25;1.90;88.10
71084;DHT22;58741;52.672;13.548;2023-04-07T05:45:51;2.00;87.30
71084;DHT22;58741;52.672;13.548;2023-04-07T05:48:16;2.10;86.70
71084;DHT22;58741;52.672;13.548;2023-04-07T05:52:56;2.20;86.60
71084;DHT22;58741;52.672;13.548;2023-04-07T05:57:35;2.30;86.90
71084;DHT22;58741;52.672;13.548;2023-04-07T06:00:03;2.30;87.10
71084;DHT22;58741;52.672;13.548;2023-04-07T06:02:39;2.40;86.60
71084;DHT22;58741;52.672;13.548;2023-04-07T06:05:08;2.50;86.80
71084;DHT22;58741;52.672;13.548;2023-04-07T06:07:35;2.50;86.50
71084;DHT22;58741;52.672;13.548;2023-04-07T06:10:01;2.60;86.50
71084;DHT22;58741;52.672;13.548;2023-04-07T06:12:26;2.60;86.50
71084;DHT22;58741;52.672;13.548;2023-04-07T06:14:53;2.70;86.10
71084;DHT22;58741;52.672;13.548;2023-04-07T06:17:21;2.80;87.00
71084;DHT22;58741;52.672;13.548;2023-04-07T06:19:46;2.80;86.60
71084;DHT22;58741;52.672;13.548;2023-04-07T06:22:12;2.90;86.10
71084;DHT22;58741;52.672;13.548;2023-04-07T06:24:38;2.90;85.90
71084;DHT22;58741;52.672;13.548;2023-04-07T06:27:04;3.00;86.00
71084;DHT22;58741;52.672;13.548;2023-04-07T06:29:31;3.00;85.90
71084;DHT22;58741;52.672;13.548;2023-04-07T06:31:58;3.10;86.10
71084;DHT22;58741;52.672;13.548;2023-04-07T06:34:24;3.10;85.80
71084;DHT22;58741;52.672;13.548;2023-04-07T06:36:50;3.20;85.90
71084;DHT22;58741;52.672;13.548;2023-04-07T06:39:16;3.20;85.50
71084;DHT22;58741;52.672;13.548;2023-04-07T06:41:42;3.30;85.00
71084;DHT22;58741;52.672;13.548;2023-04-07T06:44:11;3.30;85.10
71084;DHT22;58741;52.672;13.548;2023-04-07T06:46:36;3.40;85.40
71084;DHT22;58741;52.672;13.548;2023-04-07T06:49:02;3.40;84.90
71084;DHT22;58741;52.672;13.548;2023-04-07T06:53:39;3.50;84.40
71084;DHT22;58741;52.672;13.548;2023-04-07T06:56:08;3.60;84.80
71084;DHT22;58741;52.672;13.548;2023-04-07T06:58:34;3.70;84.60
71084;DHT22;58741;52.672;13.548;2023-04-07T07:01:00;3.70;84.40
71084;DHT22;58741;52.672;13.548;2023-04-07T07:03:27;3.80;83.90
71084;DHT22;58741;52.672;13.548;2023-04-07T07:05:57;3.80;83.70
71084;DHT22;58741;52.672;13.548;2023-04-07T07:08:24;3.90;83.30
71084;DHT22;58741;52.672;13.548;2023-04-07T07:10:50;4.00;83.40
71084;DHT22;58741;52.672;13.548;2023-04-07T07:13:17;4.00;82.70
71084;DHT22;58741;52.672;13.548;2023-04-07T07:15:43;4.10;82.70
71084;DHT22;58741;52.672;13.548;2023-04-07T07:18:08;4.20;82.30
71084;DHT22;58741;52.672;13.548;2023-04-07T07:20:34;4.20;81.80
71084;DHT22;58741;52.672;13.548;2023-04-07T07:23:00;4.30;81.60
71084;DHT22;58741;52.672;13.548;2023-04-07T07:25:26;4.30;81.70
71084;DHT22;58741;52.672;13.548;2023-04-07T07:27:52;4.40;81.60
71084;DHT22;58741;52.672;13.548;2023-04-07T07:30:20;4.50;81.20
71084;DHT22;58741;52.672;13.548;2023-04-07T07:32:45;4.50;80.90
71084;DHT22;58741;52.672;13.548;2023-04-07T07:35:11;4.60;80.30
71084;DHT22;58741;52.672;13.548;2023-04-07T07:37:36;4.60;80.60
71084;DHT22;58741;52.672;13.548;2023-04-07T07:40:02;4.70;80.50
71084;DHT22;58741;52.672;13.548;2023-04-07T07:42:29;4.80;80.30
71084;DHT22;58741;52.672;13.548;2023-04-07T07:44:55;4.80;80.20
71084;DHT22;58741;52.672;13.548;2023-04-07T07:47:21;4.90;79.60
71084;DHT22;58741;52.672;13.548;2023-04-07T07:49:47;5.00;79.60
71084;DHT22;58741;52.672;13.548;2023-04-07T07:52:13;5.10;79.30
71084;DHT22;58741;52.672;13.548;2023-04-07T07:54:39;5.10;78.80
71084;DHT22;58741;52.672;13.548;2023-04-07T07:57:04;5.20;78.60
71084;DHT22;58741;52.672;13.548;2023-04-07T07:59:31;5.30;78.50
71084;DHT22;58741;52.672;13.548;2023-04-07T08:01:56;5.30;78.20
71084;DHT22;58741;52.672;13.548;2023-04-07T08:04:22;5.40;77.70
71084;DHT22;58741;52.672;13.548;2023-04-07T08:06:49;5.40;76.80
71084;DHT22;58741;52.672;13.548;2023-04-07T08:09:15;5.50;76.80
71084;DHT22;58741;52.672;13.548;2023-04-07T08:11:41;5.50;76.30
71084;DHT22;58741;52.672;13.548;2023-04-07T08:14:07;5.50;76.30
71084;DHT22;58741;52.672;13.548;2023-04-07T08:16:32;5.50;75.60
71084;DHT22;58741;52.672;13.548;2023-04-07T08:18:58;5.50;74.70
71084;DHT22;58741;52.672;13.548;2023-04-07T08:21:23;5.60;74.50
71084;DHT22;58741;52.672;13.548;2023-04-07T08:23:52;5.60;74.70
71084;DHT22;58741;52.672;13.548;2023-04-07T08:26:18;5.60;74.70
71084;DHT22;58741;52.672;13.548;2023-04-07T08:30:55;5.60;72.80
71084;DHT22;58741;52.672;13.548;2023-04-07T08:33:21;5.60;73.90
71084;DHT22;58741;52.672;13.548;2023-04-07T08:35:47;5.60;73.90
71084;DHT22;58741;52.672;13.548;2023-04-07T08:40:24;5.70;73.40
71084;DHT22;58741;52.672;13.548;2023-04-07T08:42:50;5.70;73.90
71084;DHT22;58741;52.672;13.548;2023-04-07T08:45:17;5.80;73.80
71084;DHT22;58741;52.672;13.548;2023-04-07T08:47:45;5.80;73.40
71084;DHT22;58741;52.672;13.548;2023-04-07T08:50:16;5.90;73.30
71084;DHT22;58741;52.672;13.548;2023-04-07T08:52:46;6.00;72.50
71084;DHT22;58741;52.672;13.548;2023-04-07T08:55:14;5.90;72.40
71084;DHT22;58741;52.672;13.548;2023-04-07T08:57:40;5.90;72.40
71084;DHT22;58741;52.672;13.548;2023-04-07T09:00:07;6.00;72.20
71084;DHT22;58741;52.672;13.548;2023-04-07T09:02:39;5.90;72.20
71084;DHT22;58741;52.672;13.548;2023-04-07T09:05:07;5.90;72.30
71084;DHT22;58741;52.672;13.548;2023-04-07T09:07:37;6.00;72.80
71084;DHT22;58741;52.672;13.548;2023-04-07T09:12:14;6.00;72.30
71084;DHT22;58741;52.672;13.548;2023-04-07T09:14:40;6.00;72.70
71084;DHT22;58741;52.672;13.548;2023-04-07T09:17:05;6.10;73.00
71084;DHT22;58741;52.672;13.548;2023-04-07T09:19:31;6.10;73.10
71084;DHT22;58741;52.672;13.548;2023-04-07T09:21:57;6.20;73.20
71084;DHT22;58741;52.672;13.548;2023-04-07T09:24:28;6.20;73.10
71084;DHT22;58741;52.672;13.548;2023-04-07T09:27:10;6.20;72.80
71084;DHT22;58741;52.672;13.548;2023-04-07T09:29:36;6.30;72.70
71084;DHT22;58741;52.672;13.548;2023-04-07T09:32:02;6.30;72.60
71084;DHT22;58741;52.672;13.548;2023-04-07T09:34:33;6.30;72.40
71084;DHT22;58741;52.672;13.548;2023-04-07T09:36:59;6.30;72.60
71084;DHT22;58741;52.672;13.548;2023-04-07T09:39:26;6.30;73.60
71084;DHT22;58741;52.672;13.548;2023-04-07T09:41:52;6.30;73.40
71084;DHT22;58741;52.672;13.548;2023-04-07T09:44:18;6.40;73.30
71084;DHT22;58741;52.672;13.548;2023-04-07T09:46:48;6.40;73.40
71084;DHT22;58741;52.672;13.548;2023-04-07T09:49:13;6.30;73.50
71084;DHT22;58741;52.672;13.548;2023-04-07T09:52:01;6.40;73.80
71084;DHT22;58741;52.672;13.548;2023-04-07T09:54:36;6.30;74.40
71084;DHT22;58741;52.672;13.548;2023-04-07T09:57:04;6.30;75.10
71084;DHT22;58741;52.672;13.548;2023-04-07T09:59:31;6.30;75.30
71084;DHT22;58741;52.672;13.548;2023-04-07T10:01:58;6.30;75.70
71084;DHT22;58741;52.672;13.548;2023-04-07T10:04:24;6.30;76.50
71084;DHT22;58741;52.672;13.548;2023-04-07T10:06:54;6.20;77.20
71084;DHT22;58741;52.672;13.548;2023-04-07T10:09:26;6.30;77.90
71084;DHT22;58741;52.672;13.548;2023-04-07T10:11:53;6.20;79.20
71084;DHT22;58741;52.672;13.548;2023-04-07T10:14:21;6.20;79.40
71084;DHT22;58741;52.672;13.548;2023-04-07T10:16:47;6.20;81.10
71084;DHT22;58741;52.672;13.548;2023-04-07T10:19:14;6.20;80.60
71084;DHT22;58741;52.672;13.548;2023-04-07T10:21:40;6.20;83.00
71084;DHT22;58741;52.672;13.548;2023-04-07T10:24:15;6.20;85.20
71084;DHT22;58741;52.672;13.548;2023-04-07T10:26:49;6.20;83.90
71084;DHT22;58741;52.672;13.548;2023-04-07T10:29:17;6.20;84.30
71084;DHT22;58741;52.672;13.548;2023-04-07T10:31:44;6.20;85.60
71084;DHT22;58741;52.672;13.548;2023-04-07T10:34:10;6.20;85.10
71084;DHT22;58741;52.672;13.548;2023-04-07T10:37:11;6.20;84.80
71084;DHT22;58741;52.672;13.548;2023-04-07T10:39:38;6.20;86.20
71084;DHT22;58741;52.672;13.548;2023-04-07T10:42:03;6.20;86.50
71084;DHT22;58741;52.672;13.548;2023-04-07T10:47:07;6.20;87.80
71084;DHT22;58741;52.672;13.548;2023-04-07T10:49:33;6.30;87.00
71084;DHT22;58741;52.672;13.548;2023-04-07T10:52:26;6.30;89.20
71084;DHT22;58741;52.672;13.548;2023-04-07T10:55:27;6.30;87.90
71084;DHT22;58741;52.672;13.548;2023-04-07T10:58:18;6.30;88.70
71084;DHT22;58741;52.672;13.548;2023-04-07T11:03:33;6.30;88.60
71084;DHT22;58741;52.672;13.548;2023-04-07T11:06:03;6.40;88.30
71084;DHT22;58741;52.672;13.548;2023-04-07T11:08:33;6.40;88.80
71084;DHT22;58741;52.672;13.548;2023-04-07T11:10:59;6.40;88.90
71084;DHT22;58741;52.672;13.548;2023-04-07T11:13:25;6.40;89.80
71084;DHT22;58741;52.672;13.548;2023-04-07T11:15:51;6.40;90.10
71084;DHT22;58741;52.672;13.548;2023-04-07T11:18:19;6.40;90.30
71084;DHT22;58741;52.672;13.548;2023-04-07T11:20:56;6.40;90.20
71084;DHT22;58741;52.672;13.548;2023-04-07T11:23:23;6.40;90.40
71084;DHT22;58741;52.672;13.548;2023-04-07T11:25:52;6.40;90.90
71084;DHT22;58741;52.672;13.548;2023-04-07T11:28:18;6.50;91.10
71084;DHT22;58741;52.672;13.548;2023-04-07T11:30:53;6.50;91.30
71084;DHT22;58741;52.672;13.548;2023-04-07T11:33:21;6.50;91.40
71084;DHT22;58741;52.672;13.548;2023-04-07T11:35:55;6.60;91.60
71084;DHT22;58741;52.672;13.548;2023-04-07T11:38:27;6.70;91.60
71084;DHT22;58741;52.672;13.548;2023-04-07T11:40:54;6.70;92.10
71084;DHT22;58741;52.672;13.548;2023-04-07T11:43:25;6.80;91.70
71084;DHT22;58741;52.672;13.548;2023-04-07T11:46:04;6.80;91.70
71084;DHT22;58741;52.672;13.548;2023-04-07T11:48:31;6.80;91.60
71084;DHT22;58741;52.672;13.548;2023-04-07T11:50:58;6.80;91.60
71084;DHT22;58741;52.672;13.548;2023-04-07T11:53:26;6.80;91.50
71084;DHT22;58741;52.672;13.548;2023-04-07T11:56:09;6.90;91.30
71084;DHT22;58741;52.672;13.548;2023-04-07T11:58:46;6.80;91.20
71084;DHT22;58741;52.672;13.548;2023-04-07T12:01:11;6.90;91.50
71084;DHT22;58741;52.672;13.548;2023-04-07T12:03:57;6.80;91.20
71084;DHT22;58741;52.672;13.548;2023-04-07T12:06:30;6.80;91.50
71084;DHT22;58741;52.672;13.548;2023-04-07T12:08:59;6.80;91.80
71084;DHT22;58741;52.672;13.548;2023-04-07T12:11:25;6.80;91.40
71084;DHT22;58741;52.672;13.548;2023-04-07T12:13:51;6.80;91.90
71084;DHT22;58741;52.672;13.548;2023-04-07T12:16:17;6.80;91.80
71084;DHT22;58741;52.672;13.548;2023-04-07T12:18:43;6.80;91.60
71084;DHT22;58741;52.672;13.548;2023-04-07T12:21:09;6.80;92.30
71084;DHT22;58741;52.672;13.548;2023-04-07T12:23:35;6.80;92.40
71084;DHT22;58741;52.672;13.548;2023-04-07T12:26:00;6.80;92.30
71084;DHT22;58741;52.672;13.548;2023-04-07T12:28:26;6.80;92.20
71084;DHT22;58741;52.672;13.548;2023-04-07T12:30:54;6.80;91.80
71084;DHT22;58741;52.672;13.548;2023-04-07T12:33:20;6.80;91.90
71084;DHT22;58741;52.672;13.548;2023-04-07T12:35:46;6.80;92.00
71084;DHT22;58741;52.672;13.548;2023-04-07T12:38:11;6.80;91.90
71084;DHT22;58741;52.672;13.548;2023-04-07T12:40:37;6.80;92.20
71084;DHT22;58741;52.672;13.548;2023-04-07T12:43:04;6.80;92.30
71084;DHT22;58741;52.672;13.548;2023-04-07T12:45:30;6.80;92.20
71084;DHT22;58741;52.672;13.548;2023-04-07T12:47:56;6.80;92.30
71084;DHT22;58741;52.672;13.548;2023-04-07T12:50:22;6.80;92.60
71084;DHT22;58741;52.672;13.548;2023-04-07T12:52:50;6.80;92.10
71084;DHT22;58741;52.672;13.548;2023-04-07T12:55:16;6.80;92.40
71084;DHT22;58741;52.672;13.548;2023-04-07T12:57:42;6.80;92.60
71084;DHT22;58741;52.672;13.548;2023-04-07T13:00:08;6.80;92.50
71084;DHT22;58741;52.672;13.548;2023-04-07T13:02:34;6.80;92.50
71084;DHT22;58741;52.672;13.548;2023-04-07T13:05:02;6.80;92.40
71084;DHT22;58741;52.672;13.548;2023-04-07T13:07:29;6.80;92.60
71084;DHT22;58741;52.672;13.548;2023-04-07T13:09:55;6.80;92.60
71084;DHT22;58741;52.672;13.548;2023-04-07T13:12:22;6.80;92.70
71084;DHT22;58741;52.672;13.548;2023-04-07T13:14:48;6.90;93.00
71084;DHT22;58741;52.672;13.548;2023-04-07T13:17:14;6.90;92.80
71084;DHT22;58741;52.672;13.548;2023-04-07T13:19:39;6.90;92.70
71084;DHT22;58741;52.672;13.548;2023-04-07T13:22:05;6.90;92.80
71084;DHT22;58741;52.672;13.548;2023-04-07T13:24:31;6.90;92.40
71084;DHT22;58741;52.672;13.548;2023-04-07T13:26:57;6.80;92.50
71084;DHT22;58741;52.672;13.548;2023-04-07T13:29:23;6.90;93.00
71084;DHT22;58741;52.672;13.548;2023-04-07T13:31:49;6.90;92.90
71084;DHT22;58741;52.672;13.548;2023-04-07T13:34:15;6.80;92.80
71084;DHT22;58741;52.672;13.548;2023-04-07T13:36:41;6.80;92.80
71084;DHT22;58741;52.672;13.548;2023-04-07T13:39:07;6.90;92.60
71084;DHT22;58741;52.672;13.548;2023-04-07T13:41:33;6.90;93.10
71084;DHT22;58741;52.672;13.548;2023-04-07T13:43:59;6.90;92.90
71084;DHT22;58741;52.672;13.548;2023-04-07T13:46:25;6.90;93.20
71084;DHT22;58741;52.672;13.548;2023-04-07T13:48:51;6.90;93.20
71084;DHT22;58741;52.672;13.548;2023-04-07T13:51:17;6.90;92.90
71084;DHT22;58741;52.672;13.548;2023-04-07T13:53:44;6.90;93.50
71084;DHT22;58741;52.672;13.548;2023-04-07T13:56:09;6.90;93.50
71084;DHT22;58741;52.672;13.548;2023-04-07T13:58:35;6.90;93.50
71084;DHT22;58741;52.672;13.548;2023-04-07T14:01:02;6.90;93.70
71084;DHT22;58741;52.672;13.548;2023-04-07T14:03:28;6.90;93.60
71084;DHT22;58741;52.672;13.548;2023-04-07T14:05:53;6.90;93.80
71084;DHT22;58741;52.672;13.548;2023-04-07T14:08:20;6.90;93.90
71084;DHT22;58741;52.672;13.548;2023-04-07T14:10:48;6.90;94.30
71084;DHT22;58741;52.672;13.548;2023-04-07T14:13:14;6.90;94.20
71084;DHT22;58741;52.672;13.548;2023-04-07T14:15:40;6.90;94.30
71084;DHT22;58741;52.672;13.548;2023-04-07T14:18:05;6.90;94.20
71084;DHT22;58741;52.672;13.548;2023-04-07T14:20:32;6.90;93.80
71084;DHT22;58741;52.672;13.548;2023-04-07T14:22:57;6.90;94.10
71084;DHT22;58741;52.672;13.548;2023-04-07T14:25:23;6.90;94.10
71084;DHT22;58741;52.672;13.548;2023-04-07T14:27:49;6.90;94.60
71084;DHT22;58741;52.672;13.548;2023-04-07T14:30:15;6.90;94.00
71084;DHT22;58741;52.672;13.548;2023-04-07T14:32:41;6.90;94.00
71084;DHT22;58741;52.672;13.548;2023-04-07T14:35:06;6.90;93.90
71084;DHT22;58741;52.672;13.548;2023-04-07T14:37:32;6.90;93.90
71084;DHT22;58741;52.672;13.548;2023-04-07T14:40:00;6.90;94.00
71084;DHT22;58741;52.672;13.548;2023-04-07T14:42:26;6.90;94.10
71084;DHT22;58741;52.672;13.548;2023-04-07T14:44:54;7.00;94.20
71084;DHT22;58741;52.672;13.548;2023-04-07T14:47:20;7.00;94.50
71084;DHT22;58741;52.672;13.548;2023-04-07T14:49:45;7.00;94.30
71084;DHT22;58741;52.672;13.548;2023-04-07T14:52:11;7.00;93.90
71084;DHT22;58741;52.672;13.548;2023-04-07T14:54:38;7.10;94.30
71084;DHT22;58741;52.672;13.548;2023-04-07T14:57:04;7.10;94.80
71084;DHT22;58741;52.672;13.548;2023-04-07T14:59:30;7.10;94.70
71084;DHT22;58741;52.672;13.548;2023-04-07T15:01:56;7.10;94.40
71084;DHT22;58741;52.672;13.548;2023-04-07T15:04:21;7.10;94.40
71084;DHT22;58741;52.672;13.548;2023-04-07T15:06:47;7.10;94.50
71084;DHT22;58741;52.672;13.548;2023-04-07T15:09:13;7.10;94.70
71084;DHT22;58741;52.672;13.548;2023-04-07T15:11:38;7.10;95.00
71084;DHT22;58741;52.672;13.548;2023-04-07T15:14:04;7.00;94.50
71084;DHT22;58741;52.672;13.548;2023-04-07T15:16:31;7.00;94.80
71084;DHT22;58741;52.672;13.548;2023-04-07T15:18:56;7.10;94.60
71084;DHT22;58741;52.672;13.548;2023-04-07T15:21:22;7.00;94.70
71084;DHT22;58741;52.672;13.548;2023-04-07T15:23:48;7.00;94.50
71084;DHT22;58741;52.672;13.548;2023-04-07T15:26:13;7.00;94.60
71084;DHT22;58741;52.672;13.548;2023-04-07T15:28:39;7.00;94.80
71084;DHT22;58741;52.672;13.548;2023-04-07T15:31:05;7.00;95.00
71084;DHT22;58741;52.672;13.548;2023-04-07T15:33:38;7.00;94.80
71084;DHT22;58741;52.672;13.548;2023-04-07T15:36:05;7.00;94.80
71084;DHT22;58741;52.672;13.548;2023-04-07T15:38:31;6.90;95.00
71084;DHT22;58741;52.672;13.548;2023-04-07T15:40:56;6.90;95.10
71084;DHT22;58741;52.672;13.548;2023-04-07T15:43:22;7.00;95.20
71084;DHT22;58741;52.672;13.548;2023-04-07T15:45:48;6.90;95.50
71084;DHT22;58741;52.672;13.548;2023-04-07T15:48:14;6.90;96.00
71084;DHT22;58741;52.672;13.548;2023-04-07T15:50:40;6.90;96.10
71084;DHT22;58741;52.672;13.548;2023-04-07T15:53:06;6.80;96.30
71084;DHT22;58741;52.672;13.548;2023-04-07T15:55:33;6.80;96.60
71084;DHT22;58741;52.672;13.548;2023-04-07T15:57:59;6.80;96.60
71084;DHT22;58741;52.672;13.548;2023-04-07T16:00:25;6.80;96.50
71084;DHT22;58741;52.672;13.548;2023-04-07T16:02:51;6.80;96.70
71084;DHT22;58741;52.672;13.548;2023-04-07T16:05:17;6.80;96.80
71084;DHT22;58741;52.672;13.548;2023-04-07T16:07:43;6.80;97.00
71084;DHT22;58741;52.672;13.548;2023-04-07T16:10:08;6.80;97.10
71084;DHT22;58741;52.672;13.548;2023-04-07T16:12:35;6.80;97.30
71084;DHT22;58741;52.672;13.548;2023-04-07T16:15:02;6.80;97.70
71084;DHT22;58741;52.672;13.548;2023-04-07T16:19:39;6.80;97.40
71084;DHT22;58741;52.672;13.548;2023-04-07T16:22:04;6.70;97.80
71084;DHT22;58741;52.672;13.548;2023-04-07T16:24:30;6.70;97.70
71084;DHT22;58741;52.672;13.548;2023-04-07T16:26:56;6.70;97.90
71084;DHT22;58741;52.672;13.548;2023-04-07T16:29:21;6.80;97.90
71084;DHT22;58741;52.672;13.548;2023-04-07T16:31:47;6.80;97.90
71084;DHT22;58741;52.672;13.548;2023-04-07T16:34:13;6.70;98.10
71084;DHT22;58741;52.672;13.548;2023-04-07T16:36:39;6.70;98.30
71084;DHT22;58741;52.672;13.548;2023-04-07T16:39:05;6.70;98.50
71084;DHT22;58741;52.672;13.548;2023-04-07T16:41:31;6.60;98.40
71084;DHT22;58741;52.672;13.548;2023-04-07T16:43:57;6.60;98.70